sensor_id;sensor_type;location;lat;lon;timestamp;pressure;altitude;pressure_sealevel;temperature;humidity
25944;BME280;13742;49.306;8.636;2022-10-19T00:01:39;101514.86;;;16.27;100.00
25944;BME280;13742;49.306;8.636;2022-10-19T00:01:56;101514.80;;;16.26;100.00
25944;BME280;13742;49.306;8.636;2022-10-19T00:02:56;101517.03;;;16.26;100.00
25944;BME280;13742;49.306;8.636;2022-10-19T00:03:56;101514.16;;;16.27;100.00
25944;BME280;13742;49.306;8.636;2022-10-19T00:04:56;101517.58;;;16.29;100.00
25944;BME280;13742;49.306;8.636;2022-10-19T00:05:56;101517.53;;;16.29;100.00
25944;BME280;13742;49.306;8.636;2022-10-19T00:06:56;101521.97;;;16.29;100.00
25944;BME280;13742;49.306;8.636;2022-10-19T00:07:56;101520.97;;;16.29;100.00
25944;BME280;13742;49.306;8.636;2022-10-19T00:08:57;101520.13;;;16.29;100.00
25944;BME280;13742;49.306;8.636;2022-10-19T00:09:56;101518.53;;;16.29;100.00
25944;BME280;13742;49.306;8.636;2022-10-19T00:10:56;101519.58;;;16.29;100.00
25944;BME280;13742;49.306;8.636;2022-10-19T00:11:56;101521.38;;;16.30;100.00
25944;BME280;13742;49.306;8.636;2022-10-19T00:12:56;101519.69;;;16.29;100.00
25944;BME280;13742;49.306;8.636;2022-10-19T00:13:56;101517.82;;;16.30;100.00
25944;BME280;13742;49.306;8.636;2022-10-19T00:14:56;101516.70;;;16.30;100.00
25944;BME280;13742;49.306;8.636;2022-10-19T00:15:56;101518.40;;;16.31;100.00
25944;BME280;13742;49.306;8.636;2022-10-19T00:16:57;101517.05;;;16.30;100.00
25944;BME280;13742;49.306;8.636;2022-10-19T00:17:56;101514.94;;;16.30;100.00
25944;BME280;13742;49.306;8.636;2022-10-19T00:18:57;101517.48;;;16.30;100.00
25944;BME280;13742;49.306;8.636;2022-10-19T00:19:56;101517.44;;;16.30;100.00
25944;BME280;13742;49.306;8.636;2022-10-19T00:21:56;101516.97;;;16.29;100.00
25944;BME280;13742;49.306;8.636;2022-10-19T00:22:56;101516.32;;;16.30;100.00
25944;BME280;13742;49.306;8.636;2022-10-19T00:23:56;101515.66;;;16.30;100.00
25944;BME280;13742;49.306;8.636;2022-10-19T00:24:56;101515.59;;;16.30;100.00
25944;BME280;13742;49.306;8.636;2022-10-19T00:25:56;101514.80;;;16.29;100.00
25944;BME280;13742;49.306;8.636;2022-10-19T00:26:56;101515.32;;;16.30;100.00
25944;BME280;13742;49.306;8.636;2022-10-19T00:27:56;101517.44;;;16.30;100.00
25944;BME280;13742;49.306;8.636;2022-10-19T00:28:56;101513.66;;;16.30;100.00
25944;BME280;13742;49.306;8.636;2022-10-19T00:29:56;101513.17;;;16.31;100.00
25944;BME280;13742;49.306;8.636;2022-10-19T00:30:56;101511.84;;;16.32;100.00
25944;BME280;13742;49.306;8.636;2022-10-19T00:31:56;101509.45;;;16.32;100.00
25944;BME280;13742;49.306;8.636;2022-10-19T00:32:56;101508.16;;;16.30;100.00
25944;BME280;13742;49.306;8.636;2022-10-19T00:33:56;101511.01;;;16.31;100.00
25944;BME280;13742;49.306;8.636;2022-10-19T00:34:56;101508.73;;;16.31;100.00
25944;BME280;13742;49.306;8.636;2022-10-19T00:35:56;101508.06;;;16.31;100.00
25944;BME280;13742;49.306;8.636;2022-10-19T00:36:56;101509.78;;;16.32;100.00
25944;BME280;13742;49.306;8.636;2022-10-19T00:37:56;101504.56;;;16.28;100.00
25944;BME280;13742;49.306;8.636;2022-10-19T00:38:56;101504.82;;;16.24;100.00
25944;BME280;13742;49.306;8.636;2022-10-19T00:39:56;101505.58;;;16.24;100.00
25944;BME280;13742;49.306;8.636;2022-10-19T00:40:56;101502.28;;;16.22;100.00
25944;BME280;13742;49.306;8.636;2022-10-19T00:41:56;101503.00;;;16.22;100.00
25944;BME280;13742;49.306;8.636;2022-10-19T00:42:56;101499.74;;;16.23;100.00
25944;BME280;13742;49.306;8.636;2022-10-19T00:44:06;101501.48;;;16.24;100.00
25944;BME280;13742;49.306;8.636;2022-10-19T00:44:57;101501.58;;;16.23;100.00
25944;BME280;13742;49.306;8.636;2022-10-19T00:45:56;101500.06;;;16.23;100.00
25944;BME280;13742;49.306;8.636;2022-10-19T00:46:56;101500.56;;;16.23;100.00
25944;BME280;13742;49.306;8.636;2022-10-19T00:47:56;101500.45;;;16.22;100.00
25944;BME280;13742;49.306;8.636;2022-10-19T00:48:57;101502.84;;;16.22;100.00
25944;BME280;13742;49.306;8.636;2022-10-19T00:49:56;101500.77;;;16.22;100.00
25944;BME280;13742;49.306;8.636;2022-10-19T00:50:56;101500.70;;;16.21;100.00
25944;BME280;13742;49.306;8.636;2022-10-19T00:51:58;101503.09;;;16.22;100.00
25944;BME280;13742;49.306;8.636;2022-10-19T00:52:56;101498.34;;;16.22;100.00
25944;BME280;13742;49.306;8.636;2022-10-19T00:53:56;101501.34;;;16.23;100.00
25944;BME280;13742;49.306;8.636;2022-10-19T00:54:56;101500.74;;;16.23;100.00
25944;BME280;13742;49.306;8.636;2022-10-19T00:55:56;101501.17;;;16.23;100.00
25944;BME280;13742;49.306;8.636;2022-10-19T00:56:56;101502.17;;;16.23;100.00
25944;BME280;13742;49.306;8.636;2022-10-19T00:57:56;101504.41;;;16.23;100.00
25944;BME280;13742;49.306;8.636;2022-10-19T00:58:56;101507.97;;;16.24;100.00
25944;BME280;13742;49.306;8.636;2022-10-19T00:59:56;101506.63;;;16.24;100.00
25944;BME280;13742;49.306;8.636;2022-10-19T01:00:57;101506.02;;;16.23;100.00
25944;BME280;13742;49.306;8.636;2022-10-19T01:01:56;101506.63;;;16.24;100.00
25944;BME280;13742;49.306;8.636;2022-10-19T01:02:57;101505.17;;;16.23;100.00
25944;BME280;13742;49.306;8.636;2022-10-19T01:03:56;101503.56;;;16.23;100.00
25944;BME280;13742;49.306;8.636;2022-10-19T01:04:56;101503.43;;;16.21;100.00
25944;BME280;13742;49.306;8.636;2022-10-19T01:05:56;101500.54;;;16.19;100.00
25944;BME280;13742;49.306;8.636;2022-10-19T01:06:56;101497.95;;;16.19;100.00
25944;BME280;13742;49.306;8.636;2022-10-19T01:07:56;101499.08;;;16.17;100.00
25944;BME280;13742;49.306;8.636;2022-10-19T01:08:56;101498.61;;;16.17;100.00
25944;BME280;13742;49.306;8.636;2022-10-19T01:09:56;101498.34;;;16.16;100.00
25944;BME280;13742;49.306;8.636;2022-10-19T01:14:03;101493.83;;;16.14;100.00
25944;BME280;13742;49.306;8.636;2022-10-19T01:15:58;101491.48;;;16.13;100.00
25944;BME280;13742;49.306;8.636;2022-10-19T01:16:59;101490.05;;;16.14;100.00
25944;BME280;13742;49.306;8.636;2022-10-19T01:21:01;101484.00;;;16.11;100.00
25944;BME280;13742;49.306;8.636;2022-10-19T01:22:04;101482.72;;;16.11;100.00
25944;BME280;13742;49.306;8.636;2022-10-19T01:26:02;101481.41;;;16.12;100.00
25944;BME280;13742;49.306;8.636;2022-10-19T01:31:58;101470.45;;;16.08;100.00
25944;BME280;13742;49.306;8.636;2022-10-19T01:33:59;101468.38;;;16.07;100.00
25944;BME280;13742;49.306;8.636;2022-10-19T01:37:00;101462.77;;;16.04;100.00
25944;BME280;13742;49.306;8.636;2022-10-19T01:38:59;101458.78;;;15.99;100.00
25944;BME280;13742;49.306;8.636;2022-10-19T01:39:59;101459.45;;;15.96;100.00
25944;BME280;13742;49.306;8.636;2022-10-19T01:41:57;101458.08;;;15.97;100.00
25944;BME280;13742;49.306;8.636;2022-10-19T01:44:59;101454.09;;;15.95;100.00
25944;BME280;13742;49.306;8.636;2022-10-19T01:46:01;101452.52;;;15.94;100.00
25944;BME280;13742;49.306;8.636;2022-10-19T01:46:59;101452.08;;;15.94;100.00
25944;BME280;13742;49.306;8.636;2022-10-19T01:47:58;101454.11;;;15.94;100.00
25944;BME280;13742;49.306;8.636;2022-10-19T01:48:59;101451.85;;;15.91;100.00
25944;BME280;13742;49.306;8.636;2022-10-19T01:49:58;101449.08;;;15.91;100.00
25944;BME280;13742;49.306;8.636;2022-10-19T01:50:57;101451.52;;;15.91;100.00
25944;BME280;13742;49.306;8.636;2022-10-19T01:51:57;101450.45;;;15.87;100.00
25944;BME280;13742;49.306;8.636;2022-10-19T01:52:56;101450.73;;;15.85;100.00
25944;BME280;13742;49.306;8.636;2022-10-19T01:53:56;101451.02;;;15.86;100.00
25944;BME280;13742;49.306;8.636;2022-10-19T01:54:57;101446.53;;;15.84;100.00
25944;BME280;13742;49.306;8.636;2022-10-19T01:55:56;101444.25;;;15.81;100.00
25944;BME280;13742;49.306;8.636;2022-10-19T01:56:56;101445.03;;;15.80;100.00
25944;BME280;13742;49.306;8.636;2022-10-19T01:57:58;101443.84;;;15.80;100.00
25944;BME280;13742;49.306;8.636;2022-10-19T01:58:56;101440.33;;;15.79;100.00
25944;BME280;13742;49.306;8.636;2022-10-19T01:59:56;101441.33;;;15.79;100.00
25944;BME280;13742;49.306;8.636;2022-10-19T02:00:56;101440.89;;;15.78;100.00
25944;BME280;13742;49.306;8.636;2022-10-19T02:01:56;101443.16;;;15.79;100.00
25944;BME280;13742;49.306;8.636;2022-10-19T02:02:56;101441.72;;;15.78;100.00
25944;BME280;13742;49.306;8.636;2022-10-19T02:03:56;101439.14;;;15.78;100.00
25944;BME280;13742;49.306;8.636;2022-10-19T02:04:56;101438.26;;;15.78;100.00
25944;BME280;13742;49.306;8.636;2022-10-19T02:05:56;101440.48;;;15.77;100.00
25944;BME280;13742;49.306;8.636;2022-10-19T02:06:56;101439.27;;;15.76;100.00
25944;BME280;13742;49.306;8.636;2022-10-19T02:07:57;101438.57;;;15.77;100.00
25944;BME280;13742;49.306;8.636;2022-10-19T02:08:56;101442.31;;;15.77;100.00
25944;BME280;13742;49.306;8.636;2022-10-19T02:09:56;101437.89;;;15.76;100.00
25944;BME280;13742;49.306;8.636;2022-10-19T02:10:56;101437.94;;;15.76;100.00
25944;BME280;13742;49.306;8.636;2022-10-19T02:11:56;101441.06;;;15.74;100.00
25944;BME280;13742;49.306;8.636;2022-10-19T02:12:56;101438.69;;;15.72;100.00
25944;BME280;13742;49.306;8.636;2022-10-19T02:14:00;101443.16;;;15.70;100.00
25944;BME280;13742;49.306;8.636;2022-10-19T02:14:56;101443.17;;;15.69;100.00
25944;BME280;13742;49.306;8.636;2022-10-19T02:15:57;101446.48;;;15.67;100.00
25944;BME280;13742;49.306;8.636;2022-10-19T02:16:56;101446.40;;;15.66;100.00
25944;BME280;13742;49.306;8.636;2022-10-19T02:17:56;101448.78;;;15.66;100.00
25944;BME280;13742;49.306;8.636;2022-10-19T02:18:56;101446.88;;;15.66;100.00
25944;BME280;13742;49.306;8.636;2022-10-19T02:19:56;101444.09;;;15.64;100.00
25944;BME280;13742;49.306;8.636;2022-10-19T02:20:56;101448.56;;;15.64;100.00
25944;BME280;13742;49.306;8.636;2022-10-19T02:21:56;101445.27;;;15.62;100.00
25944;BME280;13742;49.306;8.636;2022-10-19T02:22:56;101442.78;;;15.61;100.00
25944;BME280;13742;49.306;8.636;2022-10-19T02:23:56;101442.09;;;15.60;100.00
25944;BME280;13742;49.306;8.636;2022-10-19T02:24:56;101440.47;;;15.59;100.00
25944;BME280;13742;49.306;8.636;2022-10-19T02:25:56;101440.69;;;15.59;100.00
25944;BME280;13742;49.306;8.636;2022-10-19T02:26:56;101440.88;;;15.59;100.00
25944;BME280;13742;49.306;8.636;2022-10-19T02:27:56;101437.91;;;15.59;100.00
25944;BME280;13742;49.306;8.636;2022-10-19T02:28:56;101436.25;;;15.59;100.00
25944;BME280;13742;49.306;8.636;2022-10-19T02:29:56;101440.22;;;15.58;100.00
25944;BME280;13742;49.306;8.636;2022-10-19T02:30:56;101438.43;;;15.57;100.00
25944;BME280;13742;49.306;8.636;2022-10-19T02:31:56;101441.57;;;15.56;100.00
25944;BME280;13742;49.306;8.636;2022-10-19T02:32:56;101434.76;;;15.54;100.00
25944;BME280;13742;49.306;8.636;2022-10-19T02:33:56;101433.50;;;15.54;100.00
25944;BME280;13742;49.306;8.636;2022-10-19T02:34:56;101433.41;;;15.53;100.00
25944;BME280;13742;49.306;8.636;2022-10-19T02:35:56;101436.27;;;15.52;100.00
25944;BME280;13742;49.306;8.636;2022-10-19T02:36:56;101432.05;;;15.52;100.00
25944;BME280;13742;49.306;8.636;2022-10-19T02:37:57;101431.22;;;15.52;100.00
25944;BME280;13742;49.306;8.636;2022-10-19T02:38:56;101431.31;;;15.51;100.00
25944;BME280;13742;49.306;8.636;2022-10-19T02:39:56;101432.61;;;15.49;100.00
25944;BME280;13742;49.306;8.636;2022-10-19T02:41:01;101432.23;;;15.47;100.00
25944;BME280;13742;49.306;8.636;2022-10-19T02:41:58;101430.44;;;15.46;100.00
25944;BME280;13742;49.306;8.636;2022-10-19T02:42:59;101425.53;;;15.45;100.00
25944;BME280;13742;49.306;8.636;2022-10-19T02:43:57;101426.73;;;15.45;100.00
25944;BME280;13742;49.306;8.636;2022-10-19T02:44:57;101429.30;;;15.45;100.00
25944;BME280;13742;49.306;8.636;2022-10-19T02:45:59;101425.55;;;15.43;100.00
25944;BME280;13742;49.306;8.636;2022-10-19T02:46:58;101428.82;;;15.43;100.00
25944;BME280;13742;49.306;8.636;2022-10-19T02:47:59;101431.16;;;15.41;100.00
25944;BME280;13742;49.306;8.636;2022-10-19T02:48:56;101430.25;;;15.40;100.00
25944;BME280;13742;49.306;8.636;2022-10-19T02:49:56;101430.34;;;15.39;100.00
25944;BME280;13742;49.306;8.636;2022-10-19T02:50:56;101430.13;;;15.39;100.00
25944;BME280;13742;49.306;8.636;2022-10-19T02:52:06;101427.06;;;15.37;100.00
25944;BME280;13742;49.306;8.636;2022-10-19T02:52:58;101428.73;;;15.36;100.00
25944;BME280;13742;49.306;8.636;2022-10-19T02:53:56;101431.39;;;15.36;100.00
25944;BME280;13742;49.306;8.636;2022-10-19T02:54:56;101428.23;;;15.36;100.00
25944;BME280;13742;49.306;8.636;2022-10-19T02:55:56;101427.89;;;15.37;100.00
25944;BME280;13742;49.306;8.636;2022-10-19T02:56:56;101427.83;;;15.38;100.00
25944;BME280;13742;49.306;8.636;2022-10-19T02:57:56;101424.33;;;15.36;100.00
25944;BME280;13742;49.306;8.636;2022-10-19T02:58:56;101420.07;;;15.37;100.00
25944;BME280;13742;49.306;8.636;2022-10-19T02:59:56;101419.69;;;15.36;100.00
25944;BME280;13742;49.306;8.636;2022-10-19T03:00:56;101419.25;;;15.35;100.00
25944;BME280;13742;49.306;8.636;2022-10-19T03:01:56;101418.02;;;15.33;100.00
25944;BME280;13742;49.306;8.636;2022-10-19T03:02:56;101421.67;;;15.33;100.00
25944;BME280;13742;49.306;8.636;2022-10-19T03:03:56;101420.27;;;15.33;100.00
25944;BME280;13742;49.306;8.636;2022-10-19T03:04:56;101417.97;;;15.31;100.00
25944;BME280;13742;49.306;8.636;2022-10-19T03:05:56;101416.62;;;15.31;100.00
25944;BME280;13742;49.306;8.636;2022-10-19T03:06:56;101416.38;;;15.30;100.00
25944;BME280;13742;49.306;8.636;2022-10-19T03:07:56;101415.95;;;15.31;100.00
25944;BME280;13742;49.306;8.636;2022-10-19T03:08:56;101414.94;;;15.32;100.00
25944;BME280;13742;49.306;8.636;2022-10-19T03:09:56;101415.57;;;15.34;100.00
25944;BME280;13742;49.306;8.636;2022-10-19T03:10:58;101417.77;;;15.33;100.00
25944;BME280;13742;49.306;8.636;2022-10-19T03:11:56;101414.09;;;15.32;100.00
25944;BME280;13742;49.306;8.636;2022-10-19T03:12:56;101408.02;;;15.31;100.00
25944;BME280;13742;49.306;8.636;2022-10-19T03:13:56;101412.41;;;15.30;100.00
25944;BME280;13742;49.306;8.636;2022-10-19T03:14:56;101409.69;;;15.26;100.00
25944;BME280;13742;49.306;8.636;2022-10-19T03:15:56;101414.99;;;15.23;100.00
25944;BME280;13742;49.306;8.636;2022-10-19T03:16:56;101413.73;;;15.14;100.00
25944;BME280;13742;49.306;8.636;2022-10-19T03:17:56;101416.56;;;15.17;100.00
25944;BME280;13742;49.306;8.636;2022-10-19T03:18:56;101413.37;;;15.18;100.00
25944;BME280;13742;49.306;8.636;2022-10-19T03:19:56;101416.42;;;15.18;100.00
25944;BME280;13742;49.306;8.636;2022-10-19T03:21:56;101415.31;;;15.13;100.00
25944;BME280;13742;49.306;8.636;2022-10-19T03:22:56;101412.03;;;15.11;100.00
25944;BME280;13742;49.306;8.636;2022-10-19T03:23:56;101414.56;;;15.12;100.00
25944;BME280;13742;49.306;8.636;2022-10-19T03:24:56;101411.16;;;15.11;100.00
25944;BME280;13742;49.306;8.636;2022-10-19T03:25:56;101407.41;;;15.09;100.00
25944;BME280;13742;49.306;8.636;2022-10-19T03:26:56;101408.78;;;15.06;100.00
25944;BME280;13742;49.306;8.636;2022-10-19T03:27:56;101410.08;;;15.08;100.00
25944;BME280;13742;49.306;8.636;2022-10-19T03:28:56;101409.27;;;15.08;100.00
25944;BME280;13742;49.306;8.636;2022-10-19T03:29:56;101407.42;;;15.08;100.00
25944;BME280;13742;49.306;8.636;2022-10-19T03:30:56;101410.74;;;15.07;100.00
25944;BME280;13742;49.306;8.636;2022-10-19T03:31:56;101408.73;;;15.07;100.00
25944;BME280;13742;49.306;8.636;2022-10-19T03:32:56;101405.77;;;15.06;100.00
25944;BME280;13742;49.306;8.636;2022-10-19T03:33:56;101410.56;;;15.01;100.00
25944;BME280;13742;49.306;8.636;2022-10-19T03:34:56;101409.42;;;15.01;100.00
25944;BME280;13742;49.306;8.636;2022-10-19T03:36:58;101406.55;;;15.03;100.00
25944;BME280;13742;49.306;8.636;2022-10-19T03:37:56;101411.70;;;15.01;100.00
25944;BME280;13742;49.306;8.636;2022-10-19T03:38:56;101413.66;;;15.02;100.00
25944;BME280;13742;49.306;8.636;2022-10-19T03:39:56;101416.67;;;15.03;100.00
25944;BME280;13742;49.306;8.636;2022-10-19T03:40:56;101416.63;;;15.03;100.00
25944;BME280;13742;49.306;8.636;2022-10-19T03:41:56;101416.22;;;15.02;100.00
25944;BME280;13742;49.306;8.636;2022-10-19T03:42:56;101417.60;;;15.02;100.00
25944;BME280;13742;49.306;8.636;2022-10-19T03:43:56;101416.44;;;15.02;100.00
25944;BME280;13742;49.306;8.636;2022-10-19T03:44:56;101414.53;;;15.03;100.00
25944;BME280;13742;49.306;8.636;2022-10-19T03:45:56;101412.02;;;15.03;100.00
25944;BME280;13742;49.306;8.636;2022-10-19T03:46:56;101409.64;;;15.02;100.00
25944;BME280;13742;49.306;8.636;2022-10-19T03:47:56;101408.00;;;15.02;100.00
25944;BME280;13742;49.306;8.636;2022-10-19T03:48:56;101411.47;;;15.03;100.00
25944;BME280;13742;49.306;8.636;2022-10-19T03:49:56;101409.52;;;15.03;100.00
25944;BME280;13742;49.306;8.636;2022-10-19T03:51:03;101407.45;;;15.02;100.00
25944;BME280;13742;49.306;8.636;2022-10-19T03:51:56;101409.66;;;14.99;100.00
25944;BME280;13742;49.306;8.636;2022-10-19T03:52:56;101409.38;;;14.89;100.00
25944;BME280;13742;49.306;8.636;2022-10-19T03:53:57;101410.19;;;14.89;100.00
25944;BME280;13742;49.306;8.636;2022-10-19T03:54:56;101411.22;;;14.92;100.00
25944;BME280;13742;49.306;8.636;2022-10-19T03:56:56;101410.94;;;14.88;100.00
25944;BME280;13742;49.306;8.636;2022-10-19T03:57:56;101413.47;;;14.91;100.00
25944;BME280;13742;49.306;8.636;2022-10-19T03:58:57;101414.13;;;14.93;100.00
25944;BME280;13742;49.306;8.636;2022-10-19T03:59:56;101417.55;;;14.90;100.00
25944;BME280;13742;49.306;8.636;2022-10-19T04:00:56;101417.69;;;14.91;100.00
25944;BME280;13742;49.306;8.636;2022-10-19T04:01:56;101417.13;;;14.93;100.00
25944;BME280;13742;49.306;8.636;2022-10-19T04:02:56;101417.23;;;14.88;100.00
25944;BME280;13742;49.306;8.636;2022-10-19T04:03:57;101419.09;;;14.87;100.00
25944;BME280;13742;49.306;8.636;2022-10-19T04:04:56;101421.98;;;14.74;100.00
25944;BME280;13742;49.306;8.636;2022-10-19T04:06:56;101426.11;;;14.80;100.00
25944;BME280;13742;49.306;8.636;2022-10-19T04:07:56;101427.77;;;14.82;100.00
25944;BME280;13742;49.306;8.636;2022-10-19T04:08:56;101423.38;;;14.83;100.00
25944;BME280;13742;49.306;8.636;2022-10-19T04:09:56;101427.00;;;14.79;100.00
25944;BME280;13742;49.306;8.636;2022-10-19T04:11:56;101429.06;;;14.75;100.00
25944;BME280;13742;49.306;8.636;2022-10-19T04:12:56;101426.69;;;14.75;100.00
25944;BME280;13742;49.306;8.636;2022-10-19T04:13:56;101427.59;;;14.78;100.00
25944;BME280;13742;49.306;8.636;2022-10-19T04:14:56;101431.13;;;14.81;100.00
25944;BME280;13742;49.306;8.636;2022-10-19T04:15:56;101429.88;;;14.81;100.00
25944;BME280;13742;49.306;8.636;2022-10-19T04:16:56;101430.34;;;14.83;100.00
25944;BME280;13742;49.306;8.636;2022-10-19T04:17:56;101430.84;;;14.83;100.00
25944;BME280;13742;49.306;8.636;2022-10-19T04:18:56;101433.66;;;14.83;100.00
25944;BME280;13742;49.306;8.636;2022-10-19T04:19:56;101429.51;;;14.82;100.00
25944;BME280;13742;49.306;8.636;2022-10-19T04:20:56;101430.66;;;14.79;100.00
25944;BME280;13742;49.306;8.636;2022-10-19T04:21:56;101434.38;;;14.79;100.00
25944;BME280;13742;49.306;8.636;2022-10-19T04:22:56;101434.72;;;14.78;100.00
25944;BME280;13742;49.306;8.636;2022-10-19T04:23:58;101434.18;;;14.79;100.00
25944;BME280;13742;49.306;8.636;2022-10-19T04:24:56;101439.47;;;14.79;100.00
25944;BME280;13742;49.306;8.636;2022-10-19T04:26:03;101436.50;;;14.73;100.00
25944;BME280;13742;49.306;8.636;2022-10-19T04:26:56;101440.04;;;14.75;100.00
25944;BME280;13742;49.306;8.636;2022-10-19T04:27:56;101439.67;;;14.77;100.00
25944;BME280;13742;49.306;8.636;2022-10-19T04:28:56;101438.45;;;14.77;100.00
25944;BME280;13742;49.306;8.636;2022-10-19T04:29:56;101440.37;;;14.78;100.00
25944;BME280;13742;49.306;8.636;2022-10-19T04:30:56;101439.76;;;14.78;100.00
25944;BME280;13742;49.306;8.636;2022-10-19T04:31:56;101440.31;;;14.77;100.00
25944;BME280;13742;49.306;8.636;2022-10-19T04:32:56;101442.33;;;14.79;100.00
25944;BME280;13742;49.306;8.636;2022-10-19T04:33:56;101444.22;;;14.78;100.00
25944;BME280;13742;49.306;8.636;2022-10-19T04:34:56;101443.19;;;14.80;100.00
25944;BME280;13742;49.306;8.636;2022-10-19T04:35:59;101444.28;;;14.81;100.00
25944;BME280;13742;49.306;8.636;2022-10-19T04:36:58;101443.43;;;14.81;100.00
25944;BME280;13742;49.306;8.636;2022-10-19T04:37:57;101444.67;;;14.81;100.00
25944;BME280;13742;49.306;8.636;2022-10-19T04:38:56;101442.09;;;14.81;100.00
25944;BME280;13742;49.306;8.636;2022-10-19T04:39:56;101439.74;;;14.82;100.00
25944;BME280;13742;49.306;8.636;2022-10-19T04:41:17;101439.19;;;14.81;100.00
25944;BME280;13742;49.306;8.636;2022-10-19T04:41:56;101435.09;;;14.80;100.00
25944;BME280;13742;49.306;8.636;2022-10-19T04:42:56;101435.05;;;14.76;100.00
25944;BME280;13742;49.306;8.636;2022-10-19T04:43:56;101433.55;;;14.76;100.00
25944;BME280;13742;49.306;8.636;2022-10-19T04:44:56;101435.39;;;14.75;100.00
25944;BME280;13742;49.306;8.636;2022-10-19T04:45:56;101437.17;;;14.65;100.00
25944;BME280;13742;49.306;8.636;2022-10-19T04:46:56;101436.13;;;14.57;100.00
25944;BME280;13742;49.306;8.636;2022-10-19T04:47:56;101440.82;;;14.60;100.00
25944;BME280;13742;49.306;8.636;2022-10-19T04:48:56;101442.95;;;14.57;100.00
25944;BME280;13742;49.306;8.636;2022-10-19T04:49:56;101442.10;;;14.58;100.00
25944;BME280;13742;49.306;8.636;2022-10-19T04:50:56;101438.69;;;14.55;100.00
25944;BME280;13742;49.306;8.636;2022-10-19T04:51:56;101443.88;;;14.56;100.00
25944;BME280;13742;49.306;8.636;2022-10-19T04:52:56;101443.41;;;14.58;100.00
25944;BME280;13742;49.306;8.636;2022-10-19T04:53:57;101446.00;;;14.59;100.00
25944;BME280;13742;49.306;8.636;2022-10-19T04:54:56;101443.55;;;14.58;100.00
25944;BME280;13742;49.306;8.636;2022-10-19T04:55:56;101442.41;;;14.59;100.00
25944;BME280;13742;49.306;8.636;2022-10-19T04:56:56;101439.58;;;14.59;100.00
25944;BME280;13742;49.306;8.636;2022-10-19T04:57:56;101441.69;;;14.59;100.00
25944;BME280;13742;49.306;8.636;2022-10-19T04:58:59;101442.33;;;14.49;100.00
25944;BME280;13742;49.306;8.636;2022-10-19T04:59:56;101436.91;;;14.52;100.00
25944;BME280;13742;49.306;8.636;2022-10-19T05:00:56;101438.31;;;14.55;100.00
25944;BME280;13742;49.306;8.636;2022-10-19T05:01:56;101437.50;;;14.58;100.00
25944;BME280;13742;49.306;8.636;2022-10-19T05:02:56;101431.66;;;14.57;100.00
25944;BME280;13742;49.306;8.636;2022-10-19T05:03:57;101429.28;;;14.58;100.00
25944;BME280;13742;49.306;8.636;2022-10-19T05:04:56;101429.17;;;14.57;100.00
25944;BME280;13742;49.306;8.636;2022-10-19T05:05:57;101425.95;;;14.52;100.00
25944;BME280;13742;49.306;8.636;2022-10-19T05:06:56;101424.89;;;14.53;100.00
25944;BME280;13742;49.306;8.636;2022-10-19T05:07:56;101420.77;;;14.54;100.00
25944;BME280;13742;49.306;8.636;2022-10-19T05:08:56;101422.59;;;14.54;100.00
25944;BME280;13742;49.306;8.636;2022-10-19T05:09:56;101417.19;;;14.54;100.00
25944;BME280;13742;49.306;8.636;2022-10-19T05:10:59;101418.92;;;14.55;100.00
25944;BME280;13742;49.306;8.636;2022-10-19T05:11:56;101419.95;;;14.56;100.00
25944;BME280;13742;49.306;8.636;2022-10-19T05:12:56;101416.88;;;14.55;100.00
25944;BME280;13742;49.306;8.636;2022-10-19T05:13:56;101418.53;;;14.51;100.00
25944;BME280;13742;49.306;8.636;2022-10-19T05:14:56;101420.10;;;14.52;100.00
25944;BME280;13742;49.306;8.636;2022-10-19T05:15:56;101419.52;;;14.53;100.00
25944;BME280;13742;49.306;8.636;2022-10-19T05:16:56;101415.52;;;14.54;100.00
25944;BME280;13742;49.306;8.636;2022-10-19T05:17:56;101414.11;;;14.56;100.00
25944;BME280;13742;49.306;8.636;2022-10-19T05:18:57;101414.77;;;14.56;100.00
25944;BME280;13742;49.306;8.636;2022-10-19T05:19:56;101415.09;;;14.57;100.00
25944;BME280;13742;49.306;8.636;2022-10-19T05:21:56;101411.70;;;14.55;100.00
25944;BME280;13742;49.306;8.636;2022-10-19T05:22:56;101410.59;;;14.55;100.00
25944;BME280;13742;49.306;8.636;2022-10-19T05:23:56;101408.37;;;14.56;100.00
25944;BME280;13742;49.306;8.636;2022-10-19T05:24:56;101406.04;;;14.56;100.00
25944;BME280;13742;49.306;8.636;2022-10-19T05:25:59;101407.56;;;14.55;100.00
25944;BME280;13742;49.306;8.636;2022-10-19T05:26:56;101407.90;;;14.55;100.00
25944;BME280;13742;49.306;8.636;2022-10-19T05:27:56;101401.56;;;14.55;100.00
25944;BME280;13742;49.306;8.636;2022-10-19T05:28:59;101406.96;;;14.56;100.00
25944;BME280;13742;49.306;8.636;2022-10-19T05:29:56;101406.05;;;14.55;100.00
25944;BME280;13742;49.306;8.636;2022-10-19T05:31:03;101406.70;;;14.56;100.00
25944;BME280;13742;49.306;8.636;2022-10-19T05:31:56;101404.80;;;14.56;100.00
25944;BME280;13742;49.306;8.636;2022-10-19T05:32:56;101405.79;;;14.57;100.00
25944;BME280;13742;49.306;8.636;2022-10-19T05:33:56;101407.75;;;14.58;100.00
25944;BME280;13742;49.306;8.636;2022-10-19T05:34:56;101403.69;;;14.58;100.00
25944;BME280;13742;49.306;8.636;2022-10-19T05:35:56;101404.09;;;14.58;100.00
25944;BME280;13742;49.306;8.636;2022-10-19T05:36:56;101408.30;;;14.58;100.00
25944;BME280;13742;49.306;8.636;2022-10-19T05:37:56;101408.36;;;14.58;100.00
25944;BME280;13742;49.306;8.636;2022-10-19T05:38:56;101409.45;;;14.57;100.00